createdAt,value
2019-02-25T00:00:46.201Z,17.30
2019-02-25T00:03:14.013Z,20.10
2019-02-25T00:05:41.752Z,17.17
2019-02-25T00:08:09.555Z,22.17
2019-02-25T00:10:37.314Z,18.50
2019-02-25T00:13:05.076Z,15.13
2019-02-25T00:15:32.804Z,14.77
2019-02-25T00:18:00.768Z,13.83
2019-02-25T00:20:28.516Z,15.37
2019-02-25T00:22:56.296Z,14.57
2019-02-25T00:25:24.017Z,14.30
2019-02-25T00:27:51.955Z,15.57
2019-02-25T00:30:19.695Z,14.87
2019-02-25T00:32:47.934Z,13.77
2019-02-25T00:35:15.658Z,13.33
2019-02-25T00:37:43.435Z,16.90
2019-02-25T00:40:11.454Z,17.50
2019-02-25T00:42:39.417Z,13.27
2019-02-25T00:45:07.537Z,14.70
2019-02-25T00:47:35.443Z,16.60
2019-02-25T00:50:03.867Z,18.20
2019-02-25T00:52:31.785Z,15.33
2019-02-25T00:54:59.533Z,15.13
2019-02-25T00:57:27.309Z,14.83
2019-02-25T00:59:55.036Z,14.90
2019-02-25T01:02:22.995Z,14.27
2019-02-25T01:04:50.734Z,13.50
2019-02-25T01:07:18.680Z,15.83
2019-02-25T01:09:46.411Z,12.87
2019-02-25T01:12:14.360Z,13.87
2019-02-25T01:14:42.301Z,18.20
2019-02-25T01:17:10.068Z,15.40
2019-02-25T01:19:37.983Z,11.83
2019-02-25T01:22:05.753Z,15.43
2019-02-25T01:24:33.770Z,14.13
2019-02-25T01:27:01.526Z,11.50
2019-02-25T01:29:29.454Z,17.03
2019-02-25T01:31:57.353Z,15.13
2019-02-25T01:34:25.092Z,15.10
2019-02-25T01:36:52.868Z,12.03
2019-02-25T01:39:20.767Z,18.90
2019-02-25T01:41:48.518Z,13.50
2019-02-25T01:44:16.438Z,14.90
2019-02-25T01:46:44.204Z,14.90
2019-02-25T01:49:11.962Z,12.50
2019-02-25T01:51:39.710Z,14.00
2019-02-25T01:54:07.498Z,13.47
2019-02-25T01:56:35.228Z,14.73
2019-02-25T01:59:02.986Z,14.63
2019-02-25T02:01:30.716Z,15.73
2019-02-25T02:03:58.645Z,14.97
2019-02-25T02:06:26.367Z,13.33
2019-02-25T02:08:54.332Z,14.73
2019-02-25T02:11:22.084Z,14.13
2019-02-25T02:13:50.015Z,15.07
2019-02-25T02:16:17.753Z,16.73
2019-02-25T02:18:45.722Z,14.30
2019-02-25T02:21:13.487Z,15.50
2019-02-25T02:23:41.225Z,15.00
2019-02-25T02:26:09.511Z,14.17
2019-02-25T02:28:37.267Z,13.30
2019-02-25T02:31:05.118Z,13.80
2019-02-25T02:33:33.019Z,17.73
2019-02-25T02:36:00.802Z,13.13
2019-02-25T02:38:28.578Z,16.47
2019-02-25T02:40:56.498Z,17.43
2019-02-25T02:43:24.272Z,18.83
2019-02-25T02:46:08.780Z,14.40
2019-02-25T02:48:51.970Z,13.17
2019-02-25T02:51:19.701Z,16.20
2019-02-25T02:53:47.461Z,15.23
2019-02-25T02:56:15.347Z,15.30
2019-02-25T02:58:43.102Z,14.20
2019-02-25T03:01:10.851Z,15.60
2019-02-25T03:03:38.803Z,16.43
2019-02-25T03:06:06.539Z,16.83
2019-02-25T03:08:34.486Z,14.70
2019-02-25T03:11:02.213Z,14.87
2019-02-25T03:13:30.142Z,14.60
2019-02-25T03:15:58.079Z,14.73
2019-02-25T03:18:25.848Z,16.27
2019-02-25T03:20:53.625Z,16.77
2019-02-25T03:23:21.371Z,18.07
2019-02-25T03:25:49.112Z,17.10
2019-02-25T03:28:16.856Z,15.93
2019-02-25T03:30:44.764Z,13.87
2019-02-25T03:33:12.507Z,15.87
2019-02-25T03:35:40.262Z,13.47
2019-02-25T03:38:08.038Z,15.43
2019-02-25T03:40:35.891Z,16.07
2019-02-25T03:43:03.632Z,14.20
2019-02-25T03:45:31.408Z,14.50
2019-02-25T03:47:59.198Z,15.47
2019-02-25T03:50:26.989Z,13.53
2019-02-25T03:52:54.748Z,14.77
2019-02-25T03:55:23.104Z,14.90
2019-02-25T03:57:50.812Z,14.43
2019-02-25T04:00:20.709Z,12.33
2019-02-25T04:02:48.530Z,14.93
2019-02-25T04:05:16.332Z,15.53
2019-02-25T04:07:44.157Z,18.13
2019-02-25T04:10:12.234Z,14.63
2019-02-25T04:12:40.003Z,16.40
2019-02-25T04:15:11.487Z,16.83
2019-02-25T04:17:39.220Z,16.23
2019-02-25T04:20:10.439Z,14.23
2019-02-25T04:22:38.196Z,11.17
2019-02-25T04:25:06.122Z,16.43
2019-02-25T04:27:34.067Z,15.93
2019-02-25T04:30:01.973Z,15.50
2019-02-25T04:32:29.829Z,15.53
2019-02-25T04:34:57.737Z,13.13
2019-02-25T04:37:25.482Z,11.70
2019-02-25T04:39:53.237Z,11.17
2019-02-25T04:42:21.157Z,14.73
2019-02-25T04:44:51.263Z,13.77
2019-02-25T04:47:18.756Z,13.63
2019-02-25T04:49:46.664Z,10.70
2019-02-25T04:52:14.883Z,13.80
2019-02-25T04:54:42.667Z,11.80
2019-02-25T04:57:10.565Z,12.47
2019-02-25T04:59:38.301Z,11.83
2019-02-25T05:02:11.575Z,17.10
2019-02-25T05:04:39.342Z,14.17
2019-02-25T05:07:07.255Z,13.60
2019-02-25T05:09:35.025Z,11.67
2019-02-25T05:12:02.790Z,16.93
2019-02-25T05:14:30.566Z,15.53
2019-02-25T05:16:58.324Z,12.53
2019-02-25T05:19:26.094Z,15.67
2019-02-25T05:21:53.923Z,11.67
2019-02-25T05:24:21.718Z,10.27
2019-02-25T05:26:49.625Z,12.20
2019-02-25T05:29:17.418Z,13.50
2019-02-25T05:31:45.372Z,13.20
2019-02-25T05:34:13.405Z,10.57
2019-02-25T05:36:42.216Z,14.53
2019-02-25T05:39:09.942Z,16.40
2019-02-25T05:41:37.736Z,14.20
2019-02-25T05:44:05.505Z,13.67
2019-02-25T05:46:33.276Z,15.23
2019-02-25T05:49:01.058Z,12.70
2019-02-25T05:51:28.870Z,12.57
2019-02-25T05:53:56.637Z,12.00
2019-02-25T05:56:24.579Z,14.10
2019-02-25T05:58:52.297Z,13.67
2019-02-25T06:01:20.062Z,17.37
2019-02-25T06:03:47.844Z,12.03
2019-02-25T06:06:15.880Z,11.70
2019-02-25T06:08:43.635Z,11.87
2019-02-25T06:11:11.366Z,13.33
2019-02-25T06:13:39.161Z,12.17
2019-02-25T06:16:06.913Z,11.47
2019-02-25T06:18:34.691Z,12.50
2019-02-25T06:21:02.449Z,13.87
2019-02-25T06:23:30.231Z,12.07
2019-02-25T06:25:58.060Z,12.07
2019-02-25T06:28:26.019Z,13.33
2019-02-25T06:30:53.783Z,12.80
2019-02-25T06:33:21.558Z,14.73
2019-02-25T06:35:49.327Z,14.40
2019-02-25T06:38:17.118Z,19.00
2019-02-25T06:40:44.853Z,12.53
2019-02-25T06:43:12.610Z,11.03
2019-02-25T06:45:40.411Z,12.10
2019-02-25T06:48:08.191Z,14.77
2019-02-25T06:50:36.009Z,12.63
2019-02-25T06:53:03.908Z,11.93
2019-02-25T06:55:31.661Z,12.40
2019-02-25T06:57:59.561Z,11.90
2019-02-25T07:00:27.338Z,15.73
2019-02-25T07:02:55.071Z,12.10
2019-02-25T07:05:42.318Z,13.13
2019-02-25T07:08:16.213Z,11.50
2019-02-25T07:10:51.187Z,10.73
2019-02-25T07:13:36.804Z,11.07
2019-02-25T07:16:27.206Z,12.80
2019-02-25T07:19:11.739Z,16.37
2019-02-25T07:22:14.058Z,11.67
2019-02-25T07:25:01.422Z,11.90
2019-02-25T07:27:36.942Z,13.37
2019-02-25T07:30:29.797Z,9.43
2019-02-25T07:33:19.020Z,14.97
2019-02-25T07:35:59.704Z,12.70
2019-02-25T07:38:39.660Z,14.27
2019-02-25T07:41:24.337Z,11.10
2019-02-25T07:44:10.544Z,11.17
2019-02-25T07:46:54.142Z,12.70
2019-02-25T07:49:39.653Z,10.97
2019-02-25T07:52:25.221Z,13.80
2019-02-25T07:55:21.677Z,13.17
2019-02-25T07:58:05.796Z,12.50
2019-02-25T08:00:51.959Z,12.97
2019-02-25T08:03:42.453Z,10.47
2019-02-25T08:06:32.922Z,12.73
2019-02-25T08:09:09.295Z,13.90
2019-02-25T08:11:56.655Z,15.53
2019-02-25T08:14:39.036Z,13.33
2019-02-25T08:17:26.392Z,12.43
2019-02-25T08:20:28.600Z,14.27
2019-02-25T08:23:21.751Z,12.53
2019-02-25T08:26:24.037Z,14.00
2019-02-25T08:29:11.153Z,14.57
2019-02-25T08:31:54.285Z,15.47
2019-02-25T08:34:35.335Z,16.50
2019-02-25T08:37:51.375Z,24.07
2019-02-25T08:40:54.989Z,14.97
2019-02-25T08:43:29.793Z,14.40
2019-02-25T08:46:23.179Z,13.20
2019-02-25T08:48:54.543Z,13.57
2019-02-25T08:51:22.322Z,12.40
2019-02-25T08:53:50.282Z,12.67
2019-02-25T08:56:18.241Z,14.30
2019-02-25T08:58:46.034Z,13.27
2019-02-25T09:01:15.446Z,14.63
2019-02-25T09:03:43.457Z,11.83
2019-02-25T09:06:11.353Z,12.77
2019-02-25T09:08:39.216Z,13.27
2019-02-25T09:11:13.935Z,12.27
2019-02-25T09:13:36.702Z,13.70
2019-02-25T09:16:04.494Z,11.37
2019-02-25T09:18:32.276Z,15.57
2019-02-25T09:21:00.024Z,11.70
2019-02-25T09:23:27.834Z,12.53
2019-02-25T09:25:55.563Z,14.73
2019-02-25T09:28:23.334Z,13.60
2019-02-25T09:30:51.045Z,14.43
2019-02-25T09:33:18.835Z,16.47
2019-02-25T09:35:46.605Z,13.83
2019-02-25T09:38:14.396Z,13.83
2019-02-25T09:40:42.156Z,11.37
2019-02-25T09:43:09.946Z,17.30
2019-02-25T09:45:37.744Z,13.50
2019-02-25T09:48:05.550Z,19.50
2019-02-25T09:50:33.315Z,13.10
2019-02-25T09:53:01.091Z,15.67
2019-02-25T09:55:28.870Z,11.93
2019-02-25T09:57:56.663Z,12.10
2019-02-25T10:00:24.427Z,14.40
2019-02-25T10:02:52.234Z,11.23
2019-02-25T10:05:20.006Z,12.80
2019-02-25T10:07:47.829Z,14.73
2019-02-25T10:10:15.718Z,12.37
2019-02-25T10:12:43.582Z,16.17
2019-02-25T10:15:12.747Z,10.70
2019-02-25T10:17:40.497Z,13.27
2019-02-25T10:20:08.533Z,10.30
2019-02-25T10:22:36.357Z,13.03
2019-02-25T10:25:04.389Z,11.57
2019-02-25T10:27:32.206Z,10.53
2019-02-25T10:29:59.993Z,11.40
2019-02-25T10:32:29.784Z,10.03
2019-02-25T10:34:57.489Z,9.97
2019-02-25T10:37:25.306Z,10.73
2019-02-25T10:39:54.879Z,10.20
2019-02-25T10:42:22.672Z,14.97
2019-02-25T10:44:50.446Z,12.27
2019-02-25T10:47:19.856Z,10.27
2019-02-25T10:49:47.949Z,11.13
2019-02-25T10:52:17.348Z,11.47
2019-02-25T10:54:45.355Z,12.63
2019-02-25T10:57:19.401Z,12.13
2019-02-25T10:59:47.801Z,12.30
2019-02-25T11:02:17.389Z,13.37
2019-02-25T11:04:45.275Z,11.90
2019-02-25T11:07:13.022Z,11.83
2019-02-25T11:09:52.211Z,10.30
2019-02-25T11:12:21.601Z,13.13
2019-02-25T11:14:49.787Z,11.17
2019-02-25T11:17:18.316Z,13.43
2019-02-25T11:19:47.204Z,19.70
2019-02-25T11:22:16.359Z,12.53
2019-02-25T11:24:44.255Z,13.80
2019-02-25T11:27:12.044Z,11.13
2019-02-25T11:29:40.511Z,13.23
2019-02-25T11:32:09.668Z,11.37
2019-02-25T11:34:37.794Z,15.97
2019-02-25T11:37:07.245Z,11.78
2019-02-25T11:39:37.263Z,10.72
2019-02-25T11:42:07.831Z,11.88
2019-02-25T11:44:38.476Z,13.75
2019-02-25T11:47:06.278Z,12.95
2019-02-25T11:49:34.036Z,12.43
2019-02-25T11:52:01.934Z,14.03
2019-02-25T11:54:29.788Z,12.45
2019-02-25T11:56:57.820Z,13.95
2019-02-25T11:59:25.623Z,12.75
2019-02-25T12:01:53.455Z,14.60
2019-02-25T12:04:21.222Z,14.40
2019-02-25T12:06:48.999Z,12.40
2019-02-25T12:09:16.758Z,12.47
2019-02-25T12:11:44.750Z,14.07
2019-02-25T12:14:12.611Z,11.83
2019-02-25T12:16:40.687Z,13.35
2019-02-25T12:19:17.596Z,12.63
2019-02-25T12:21:38.119Z,13.05
2019-02-25T12:24:05.951Z,13.90
2019-02-25T12:26:33.711Z,12.45
2019-02-25T12:29:08.493Z,11.50
2019-02-25T12:31:31.236Z,13.00
2019-02-25T12:33:59.009Z,14.23
2019-02-25T12:36:26.789Z,15.15
2019-02-25T12:38:54.599Z,16.35
2019-02-25T12:41:22.377Z,14.47
2019-02-25T12:43:50.217Z,11.97
2019-02-25T12:46:17.955Z,13.30
2019-02-25T12:48:45.712Z,12.30
2019-02-25T12:51:13.485Z,14.00
2019-02-25T12:53:41.265Z,12.60
2019-02-25T12:56:09.013Z,12.90
2019-02-25T12:58:36.850Z,13.25
2019-02-25T13:01:04.687Z,12.20
2019-02-25T13:03:32.463Z,16.85
2019-02-25T13:06:01.588Z,12.43
2019-02-25T13:08:29.548Z,12.45
2019-02-25T13:10:57.443Z,18.98
2019-02-25T13:13:25.204Z,15.58
2019-02-25T13:15:52.989Z,11.57
2019-02-25T13:18:20.769Z,16.42
2019-02-25T13:20:48.543Z,19.52
2019-02-25T13:23:17.546Z,30.32
2019-02-25T13:25:45.640Z,18.87
2019-02-25T13:28:13.402Z,19.42
2019-02-25T13:30:41.200Z,13.65
2019-02-25T13:33:08.975Z,14.00
2019-02-25T13:35:37.007Z,16.80
2019-02-25T13:38:06.843Z,12.55
2019-02-25T13:40:34.855Z,11.88
2019-02-25T13:43:02.632Z,11.25
2019-02-25T13:45:30.480Z,11.65
2019-02-25T13:47:58.230Z,10.23
2019-02-25T13:50:26.125Z,11.50
2019-02-25T13:52:53.966Z,11.73
2019-02-25T13:55:21.905Z,10.63
2019-02-25T13:57:49.817Z,11.18
2019-02-25T14:00:18.564Z,11.97
2019-02-25T14:02:46.600Z,10.28
2019-02-25T14:05:14.662Z,12.07
2019-02-25T14:07:42.584Z,9.13
2019-02-25T14:10:11.028Z,10.43
2019-02-25T14:12:38.803Z,10.40
2019-02-25T14:15:07.303Z,9.40
2019-02-25T14:17:35.348Z,9.85
2019-02-25T14:20:08.031Z,10.95
2019-02-25T14:22:35.793Z,10.20
2019-02-25T14:25:03.975Z,10.00
2019-02-25T14:27:31.776Z,10.93
2019-02-25T14:29:59.647Z,12.25
2019-02-25T14:32:29.838Z,9.35
2019-02-25T14:34:57.615Z,10.88
2019-02-25T14:37:25.603Z,9.48
2019-02-25T14:39:54.318Z,9.65
2019-02-25T14:42:26.063Z,9.48
2019-02-25T14:44:54.490Z,10.48
2019-02-25T14:47:31.133Z,11.38
2019-02-25T14:49:53.564Z,14.50
2019-02-25T14:52:21.834Z,10.38
2019-02-25T14:54:51.008Z,10.95
2019-02-25T14:57:20.416Z,10.45
2019-02-25T14:59:48.388Z,12.07
2019-02-25T15:02:16.506Z,9.40
2019-02-25T15:04:44.496Z,9.58
2019-02-25T15:07:15.109Z,9.33
2019-02-25T15:09:43.579Z,10.83
2019-02-25T15:12:12.714Z,10.40
2019-02-25T15:14:40.504Z,9.93
2019-02-25T15:17:10.446Z,11.57
2019-02-25T15:19:39.044Z,9.67
2019-02-25T15:22:08.044Z,8.97
2019-02-25T15:24:35.886Z,8.97
2019-02-25T15:27:04.485Z,9.03
2019-02-25T15:29:34.425Z,7.90
2019-02-25T15:32:02.955Z,10.57
2019-02-25T15:34:30.748Z,10.00
2019-02-25T15:37:00.606Z,7.83
2019-02-25T15:39:28.164Z,9.07
2019-02-25T15:41:55.914Z,10.40
2019-02-25T15:44:23.895Z,11.67
2019-02-25T15:46:51.954Z,12.00
2019-02-25T15:49:21.368Z,9.50
2019-02-25T15:51:49.575Z,9.90
2019-02-25T15:54:17.337Z,8.30
2019-02-25T15:56:45.104Z,8.03
2019-02-25T15:59:12.869Z,8.00
2019-02-25T16:01:40.963Z,9.23
2019-02-25T16:04:09.308Z,9.33
2019-02-25T16:06:39.818Z,8.20
2019-02-25T16:09:08.783Z,9.47
2019-02-25T16:11:38.831Z,8.30
2019-02-25T16:14:07.026Z,11.40
2019-02-25T16:16:35.176Z,11.03
2019-02-25T16:19:05.647Z,14.50
2019-02-25T16:21:32.990Z,13.43
2019-02-25T16:24:04.026Z,12.03
2019-02-25T16:26:32.125Z,13.37
2019-02-25T16:29:04.156Z,16.77
2019-02-25T16:31:31.497Z,13.37
2019-02-25T16:34:00.139Z,13.43
2019-02-25T16:36:28.940Z,15.23
2019-02-25T16:38:58.610Z,12.50
2019-02-25T16:41:30.086Z,11.30
2019-02-25T16:44:57.548Z,9.80
2019-02-25T16:47:34.639Z,14.17
2019-02-25T16:50:30.191Z,11.07
2019-02-25T16:52:58.178Z,11.87
2019-02-25T16:55:27.743Z,10.00
2019-02-25T16:57:55.700Z,12.40
2019-02-25T17:00:27.413Z,11.70
2019-02-25T17:02:54.684Z,11.60
2019-02-25T17:05:23.052Z,13.60
2019-02-25T17:07:51.105Z,12.97
2019-02-25T17:10:19.459Z,13.47
2019-02-25T17:12:50.095Z,11.90
2019-02-25T17:15:18.899Z,16.93
2019-02-25T17:17:46.638Z,15.80
2019-02-25T17:20:14.840Z,15.60
2019-02-25T17:22:42.914Z,15.03
2019-02-25T17:25:12.170Z,19.43
2019-02-25T17:27:40.513Z,16.57
2019-02-25T17:30:14.757Z,21.90
2019-02-25T17:32:44.075Z,13.67
2019-02-25T17:35:13.032Z,14.93
2019-02-25T17:37:40.769Z,13.57
2019-02-25T17:40:11.357Z,15.30
2019-02-25T17:42:40.503Z,14.80
2019-02-25T17:45:12.333Z,19.80
2019-02-25T17:47:41.471Z,15.33
2019-02-25T17:50:10.854Z,15.43
2019-02-25T17:52:40.285Z,14.13
2019-02-25T17:55:12.818Z,12.60
2019-02-25T17:57:40.726Z,13.17
2019-02-25T18:00:19.803Z,20.47
2019-02-25T18:02:47.668Z,17.20
2019-02-25T18:05:16.917Z,14.57
2019-02-25T18:07:46.531Z,14.90
2019-02-25T18:10:14.932Z,14.80
2019-02-25T18:12:42.810Z,13.23
2019-02-25T18:15:16.265Z,15.37
2019-02-25T18:17:44.885Z,12.70
2019-02-25T18:20:14.576Z,12.87
2019-02-25T18:22:42.358Z,16.13
2019-02-25T18:25:10.859Z,13.27
2019-02-25T18:27:39.229Z,15.93
2019-02-25T18:30:09.277Z,12.67
2019-02-25T18:32:38.689Z,17.07
2019-02-25T18:35:07.447Z,19.97
2019-02-25T18:37:37.552Z,17.77
2019-02-25T18:40:06.849Z,15.53
2019-02-25T18:42:36.480Z,21.97
2019-02-25T18:45:08.344Z,19.63
2019-02-25T18:47:36.642Z,16.40
2019-02-25T18:50:07.256Z,15.77
2019-02-25T18:52:36.798Z,16.73
2019-02-25T18:55:06.729Z,16.50
2019-02-25T18:57:35.464Z,15.03
2019-02-25T19:00:06.272Z,15.20
2019-02-25T19:02:35.567Z,13.00
2019-02-25T19:05:06.162Z,13.77
2019-02-25T19:07:34.059Z,14.60
2019-02-25T19:10:01.824Z,13.67
2019-02-25T19:12:30.276Z,15.90
2019-02-25T19:15:00.002Z,15.17
2019-02-25T19:17:29.374Z,16.30
2019-02-25T19:19:58.419Z,14.00
2019-02-25T19:22:27.411Z,12.73
2019-02-25T19:24:55.207Z,14.37
2019-02-25T19:27:23.003Z,16.77
2019-02-25T19:29:53.353Z,15.27
2019-02-25T19:32:23.041Z,18.43
2019-02-25T19:34:51.911Z,12.10
2019-02-25T19:37:20.697Z,14.03
2019-02-25T19:39:50.428Z,16.37
2019-02-25T19:42:20.840Z,13.53
2019-02-25T19:44:48.188Z,12.97
2019-02-25T19:47:17.286Z,12.27
2019-02-25T19:49:46.078Z,12.50
2019-02-25T19:52:16.237Z,14.80
2019-02-25T19:54:45.677Z,15.17
2019-02-25T19:57:14.063Z,14.47
2019-02-25T19:59:45.921Z,14.63
2019-02-25T20:02:13.019Z,16.90
2019-02-25T20:04:42.296Z,16.87
2019-02-25T20:07:10.556Z,16.87
2019-02-25T20:09:40.283Z,15.67
2019-02-25T20:12:08.042Z,14.70
2019-02-25T20:14:35.803Z,14.93
2019-02-25T20:17:03.690Z,15.87
2019-02-25T20:19:31.482Z,17.00
2019-02-25T20:21:59.499Z,16.20
2019-02-25T20:24:27.290Z,18.20
2019-02-25T20:26:58.491Z,15.30
2019-02-25T20:29:25.873Z,17.97
2019-02-25T20:31:54.575Z,15.50
2019-02-25T20:34:25.142Z,17.20
2019-02-25T20:36:55.436Z,21.67
2019-02-25T20:39:22.891Z,18.67
2019-02-25T20:41:52.269Z,19.87
2019-02-25T20:44:22.272Z,18.60
2019-02-25T20:46:52.642Z,22.67
2019-02-25T20:49:20.894Z,20.73
2019-02-25T20:51:50.523Z,18.63
2019-02-25T20:54:20.945Z,19.17
2019-02-25T20:56:51.119Z,16.43
2019-02-25T20:59:20.962Z,21.57
2019-02-25T21:01:50.567Z,21.33
2019-02-25T21:04:20.101Z,17.67
2019-02-25T21:06:48.076Z,17.77
2019-02-25T21:09:15.915Z,24.77
2019-02-25T21:11:44.055Z,20.40
2019-02-25T21:14:11.831Z,17.30
2019-02-25T21:16:39.592Z,20.17
2019-02-25T21:19:08.133Z,22.60
2019-02-25T21:21:38.887Z,17.73
2019-02-25T21:24:08.929Z,21.93
2019-02-25T21:26:38.620Z,22.87
2019-02-25T21:29:07.062Z,21.43
2019-02-25T21:31:35.898Z,18.47
2019-02-25T21:34:04.508Z,18.87
2019-02-25T21:36:33.884Z,19.97
2019-02-25T21:39:03.467Z,19.43
2019-02-25T21:41:31.243Z,18.40
2019-02-25T21:43:59.287Z,18.47
2019-02-25T21:46:29.094Z,21.93
2019-02-25T21:48:57.543Z,20.13
2019-02-25T21:51:28.099Z,21.87
2019-02-25T21:53:58.090Z,21.33
2019-02-25T21:56:26.997Z,19.27
2019-02-25T21:58:54.910Z,20.73
2019-02-25T22:01:22.705Z,18.40
2019-02-25T22:03:52.428Z,18.40
2019-02-25T22:06:22.093Z,19.60
2019-02-25T22:08:52.094Z,20.43
2019-02-25T22:11:21.582Z,19.53
2019-02-25T22:13:49.182Z,19.23
2019-02-25T22:16:16.940Z,19.47
2019-02-25T22:18:44.780Z,18.70
2019-02-25T22:21:14.189Z,20.63
2019-02-25T22:23:42.446Z,19.37
2019-02-25T22:26:10.216Z,20.10
2019-02-25T22:28:39.413Z,20.63
2019-02-25T22:31:10.333Z,19.57
2019-02-25T22:33:37.033Z,19.90
2019-02-25T22:36:05.058Z,21.03
2019-02-25T22:38:32.810Z,21.13
2019-02-25T22:41:02.299Z,22.07
2019-02-25T22:43:30.177Z,24.67
2019-02-25T22:45:59.898Z,24.37
2019-02-25T22:48:27.641Z,19.73
2019-02-25T22:50:57.673Z,21.73
2019-02-25T22:53:25.232Z,20.23
2019-02-25T22:55:54.701Z,23.17
2019-02-25T22:58:22.573Z,21.03
2019-02-25T23:00:51.494Z,21.93
2019-02-25T23:03:22.574Z,21.00
2019-02-25T23:05:50.876Z,24.03
2019-02-25T23:08:20.968Z,19.83
2019-02-25T23:10:49.818Z,20.20
2019-02-25T23:13:20.059Z,22.17
2019-02-25T23:15:49.438Z,21.77
2019-02-25T23:18:21.526Z,22.17
2019-02-25T23:20:47.748Z,21.70
2019-02-25T23:23:15.473Z,22.90
2019-02-25T23:25:43.261Z,22.73
2019-02-25T23:28:11.015Z,23.63
2019-02-25T23:30:39.637Z,21.70
2019-02-25T23:33:09.717Z,21.93
2019-02-25T23:35:40.755Z,21.67
2019-02-25T23:38:06.861Z,21.60
2019-02-25T23:40:37.402Z,22.83
2019-02-25T23:43:07.105Z,21.83
2019-02-25T23:45:35.615Z,21.00
2019-02-25T23:48:06.260Z,21.97
2019-02-25T23:50:36.056Z,23.20
2019-02-25T23:53:03.906Z,20.70
2019-02-25T23:55:31.669Z,24.20
2019-02-25T23:57:59.420Z,34.27
